sensor_id;sensor_type;location;lat;lon;timestamp;P1;durP1;ratioP1;P2;durP2;ratioP2
55684;SDS011;41883;49.544;8.646;2022-11-13T00:00:51;14.50;;;9.45;;
55684;SDS011;41883;49.544;8.646;2022-11-13T00:03:16;13.30;;;8.95;;
55684;SDS011;41883;49.544;8.646;2022-11-13T00:05:42;10.35;;;7.38;;
55684;SDS011;41883;49.544;8.646;2022-11-13T00:08:07;15.18;;;9.55;;
55684;SDS011;41883;49.544;8.646;2022-11-13T00:10:32;12.25;;;8.60;;
55684;SDS011;41883;49.544;8.646;2022-11-13T00:12:58;10.95;;;8.52;;
55684;SDS011;41883;49.544;8.646;2022-11-13T00:15:23;11.77;;;8.73;;
55684;SDS011;41883;49.544;8.646;2022-11-13T00:17:48;9.32;;;7.03;;
55684;SDS011;41883;49.544;8.646;2022-11-13T00:20:14;12.88;;;9.07;;
55684;SDS011;41883;49.544;8.646;2022-11-13T00:22:39;12.23;;;8.60;;
55684;SDS011;41883;49.544;8.646;2022-11-13T00:25:04;13.52;;;9.68;;
55684;SDS011;41883;49.544;8.646;2022-11-13T00:27:30;12.23;;;9.35;;
55684;SDS011;41883;49.544;8.646;2022-11-13T00:29:56;16.52;;;9.52;;
55684;SDS011;41883;49.544;8.646;2022-11-13T00:32:21;13.52;;;9.52;;
55684;SDS011;41883;49.544;8.646;2022-11-13T00:34:46;14.55;;;9.88;;
55684;SDS011;41883;49.544;8.646;2022-11-13T00:37:12;14.75;;;9.63;;
55684;SDS011;41883;49.544;8.646;2022-11-13T00:39:37;13.00;;;8.93;;
55684;SDS011;41883;49.544;8.646;2022-11-13T00:42:02;15.15;;;10.30;;
55684;SDS011;41883;49.544;8.646;2022-11-13T00:44:27;17.30;;;10.57;;
55684;SDS011;41883;49.544;8.646;2022-11-13T00:46:53;17.13;;;10.60;;
55684;SDS011;41883;49.544;8.646;2022-11-13T00:49:18;14.73;;;9.38;;
55684;SDS011;41883;49.544;8.646;2022-11-13T00:51:43;13.10;;;9.75;;
55684;SDS011;41883;49.544;8.646;2022-11-13T00:54:08;12.73;;;8.13;;
55684;SDS011;41883;49.544;8.646;2022-11-13T00:56:34;15.73;;;9.77;;
55684;SDS011;41883;49.544;8.646;2022-11-13T00:58:59;12.82;;;8.15;;
55684;SDS011;41883;49.544;8.646;2022-11-13T01:01:24;13.55;;;9.32;;
55684;SDS011;41883;49.544;8.646;2022-11-13T01:03:50;12.93;;;9.07;;
55684;SDS011;41883;49.544;8.646;2022-11-13T01:06:25;13.30;;;8.48;;
55684;SDS011;41883;49.544;8.646;2022-11-13T01:08:56;17.48;;;10.55;;
55684;SDS011;41883;49.544;8.646;2022-11-13T01:11:24;14.15;;;8.77;;
55684;SDS011;41883;49.544;8.646;2022-11-13T01:13:53;13.40;;;8.00;;
55684;SDS011;41883;49.544;8.646;2022-11-13T01:16:20;12.55;;;7.50;;
55684;SDS011;41883;49.544;8.646;2022-11-13T01:18:47;12.00;;;7.88;;
55684;SDS011;41883;49.544;8.646;2022-11-13T01:21:20;11.63;;;7.78;;
55684;SDS011;41883;49.544;8.646;2022-11-13T01:23:47;15.73;;;8.85;;
55684;SDS011;41883;49.544;8.646;2022-11-13T01:26:17;18.80;;;11.55;;
55684;SDS011;41883;49.544;8.646;2022-11-13T01:31:58;19.00;;;11.25;;
55684;SDS011;41883;49.544;8.646;2022-11-13T01:34:23;17.25;;;10.70;;
55684;SDS011;41883;49.544;8.646;2022-11-13T01:36:48;17.75;;;10.57;;
55684;SDS011;41883;49.544;8.646;2022-11-13T01:39:14;15.55;;;9.63;;
55684;SDS011;41883;49.544;8.646;2022-11-13T01:41:39;15.13;;;9.52;;
55684;SDS011;41883;49.544;8.646;2022-11-13T01:44:05;14.15;;;9.35;;
55684;SDS011;41883;49.544;8.646;2022-11-13T01:46:37;19.10;;;10.80;;
55684;SDS011;41883;49.544;8.646;2022-11-13T01:54:06;16.98;;;10.25;;
55684;SDS011;41883;49.544;8.646;2022-11-13T01:56:36;18.45;;;11.40;;
55684;SDS011;41883;49.544;8.646;2022-11-13T02:01:34;22.35;;;11.10;;
55684;SDS011;41883;49.544;8.646;2022-11-13T02:04:00;17.80;;;10.30;;
55684;SDS011;41883;49.544;8.646;2022-11-13T02:06:27;13.88;;;9.40;;
55684;SDS011;41883;49.544;8.646;2022-11-13T02:08:54;13.90;;;9.20;;
55684;SDS011;41883;49.544;8.646;2022-11-13T02:11:20;11.48;;;7.68;;
55684;SDS011;41883;49.544;8.646;2022-11-13T02:13:45;18.27;;;10.63;;
55684;SDS011;41883;49.544;8.646;2022-11-13T02:16:11;17.50;;;9.75;;
55684;SDS011;41883;49.544;8.646;2022-11-13T02:18:38;13.10;;;8.68;;
55684;SDS011;41883;49.544;8.646;2022-11-13T02:23:45;12.50;;;8.55;;
55684;SDS011;41883;49.544;8.646;2022-11-13T02:26:13;13.52;;;8.95;;
55684;SDS011;41883;49.544;8.646;2022-11-13T02:28:40;14.73;;;8.52;;
55684;SDS011;41883;49.544;8.646;2022-11-13T02:31:09;17.33;;;10.70;;
55684;SDS011;41883;49.544;8.646;2022-11-13T02:33:36;17.13;;;10.57;;
55684;SDS011;41883;49.544;8.646;2022-11-13T02:36:02;14.57;;;9.35;;
55684;SDS011;41883;49.544;8.646;2022-11-13T02:38:29;14.10;;;9.18;;
55684;SDS011;41883;49.544;8.646;2022-11-13T02:40:56;12.65;;;8.85;;
55684;SDS011;41883;49.544;8.646;2022-11-13T02:43:21;15.30;;;9.65;;
55684;SDS011;41883;49.544;8.646;2022-11-13T02:45:46;12.93;;;9.30;;
55684;SDS011;41883;49.544;8.646;2022-11-13T02:48:12;15.65;;;9.95;;
55684;SDS011;41883;49.544;8.646;2022-11-13T02:50:37;14.73;;;9.48;;
55684;SDS011;41883;49.544;8.646;2022-11-13T02:53:02;12.05;;;8.00;;
55684;SDS011;41883;49.544;8.646;2022-11-13T02:55:29;14.98;;;9.48;;
55684;SDS011;41883;49.544;8.646;2022-11-13T02:57:54;14.23;;;9.38;;
55684;SDS011;41883;49.544;8.646;2022-11-13T03:00:19;12.60;;;8.60;;
55684;SDS011;41883;49.544;8.646;2022-11-13T03:02:45;13.68;;;9.18;;
55684;SDS011;41883;49.544;8.646;2022-11-13T03:05:10;12.88;;;8.98;;
55684;SDS011;41883;49.544;8.646;2022-11-13T03:07:35;17.35;;;9.35;;
55684;SDS011;41883;49.544;8.646;2022-11-13T03:10:01;14.18;;;9.43;;
55684;SDS011;41883;49.544;8.646;2022-11-13T03:12:26;11.23;;;8.10;;
55684;SDS011;41883;49.544;8.646;2022-11-13T03:14:51;11.55;;;8.13;;
55684;SDS011;41883;49.544;8.646;2022-11-13T03:17:17;9.32;;;7.22;;
55684;SDS011;41883;49.544;8.646;2022-11-13T03:19:42;9.70;;;7.30;;
55684;SDS011;41883;49.544;8.646;2022-11-13T03:22:07;12.65;;;8.70;;
55684;SDS011;41883;49.544;8.646;2022-11-13T03:24:33;10.45;;;7.32;;
55684;SDS011;41883;49.544;8.646;2022-11-13T03:26:58;12.43;;;8.15;;
55684;SDS011;41883;49.544;8.646;2022-11-13T03:29:23;13.30;;;8.50;;
55684;SDS011;41883;49.544;8.646;2022-11-13T03:31:48;11.30;;;8.98;;
55684;SDS011;41883;49.544;8.646;2022-11-13T03:34:14;11.60;;;7.93;;
55684;SDS011;41883;49.544;8.646;2022-11-13T03:36:39;10.98;;;7.50;;
55684;SDS011;41883;49.544;8.646;2022-11-13T03:39:04;9.25;;;7.30;;
55684;SDS011;41883;49.544;8.646;2022-11-13T03:41:29;9.38;;;7.53;;
55684;SDS011;41883;49.544;8.646;2022-11-13T03:43:55;10.13;;;7.50;;
55684;SDS011;41883;49.544;8.646;2022-11-13T03:46:20;10.00;;;7.28;;
55684;SDS011;41883;49.544;8.646;2022-11-13T03:48:45;9.77;;;7.07;;
55684;SDS011;41883;49.544;8.646;2022-11-13T03:51:10;10.13;;;7.65;;
55684;SDS011;41883;49.544;8.646;2022-11-13T03:53:36;9.60;;;7.25;;
55684;SDS011;41883;49.544;8.646;2022-11-13T03:56:01;10.30;;;7.22;;
55684;SDS011;41883;49.544;8.646;2022-11-13T03:58:26;11.38;;;7.90;;
55684;SDS011;41883;49.544;8.646;2022-11-13T04:00:52;9.25;;;6.75;;
55684;SDS011;41883;49.544;8.646;2022-11-13T04:03:18;10.07;;;7.47;;
55684;SDS011;41883;49.544;8.646;2022-11-13T04:05:44;11.75;;;8.38;;
55684;SDS011;41883;49.544;8.646;2022-11-13T04:08:12;9.82;;;7.50;;
55684;SDS011;41883;49.544;8.646;2022-11-13T04:10:37;9.95;;;6.75;;
55684;SDS011;41883;49.544;8.646;2022-11-13T04:13:02;10.02;;;7.28;;
55684;SDS011;41883;49.544;8.646;2022-11-13T04:15:27;9.55;;;7.38;;
55684;SDS011;41883;49.544;8.646;2022-11-13T04:17:53;11.10;;;7.88;;
55684;SDS011;41883;49.544;8.646;2022-11-13T04:20:18;11.85;;;7.25;;
55684;SDS011;41883;49.544;8.646;2022-11-13T04:22:43;11.15;;;7.65;;
55684;SDS011;41883;49.544;8.646;2022-11-13T04:25:09;10.35;;;7.32;;
55684;SDS011;41883;49.544;8.646;2022-11-13T04:27:34;11.70;;;8.15;;
55684;SDS011;41883;49.544;8.646;2022-11-13T04:29:59;16.83;;;8.93;;
55684;SDS011;41883;49.544;8.646;2022-11-13T04:32:25;11.68;;;8.13;;
55684;SDS011;41883;49.544;8.646;2022-11-13T04:34:50;14.98;;;8.40;;
55684;SDS011;41883;49.544;8.646;2022-11-13T04:37:15;12.05;;;8.88;;
55684;SDS011;41883;49.544;8.646;2022-11-13T04:39:40;18.77;;;9.48;;
55684;SDS011;41883;49.544;8.646;2022-11-13T04:42:07;13.13;;;9.30;;
55684;SDS011;41883;49.544;8.646;2022-11-13T04:44:51;11.38;;;8.10;;
55684;SDS011;41883;49.544;8.646;2022-11-13T04:47:17;13.40;;;9.15;;
55684;SDS011;41883;49.544;8.646;2022-11-13T04:49:42;13.93;;;9.57;;
55684;SDS011;41883;49.544;8.646;2022-11-13T04:52:07;13.57;;;9.35;;
55684;SDS011;41883;49.544;8.646;2022-11-13T04:54:33;16.83;;;9.82;;
55684;SDS011;41883;49.544;8.646;2022-11-13T04:56:58;15.93;;;9.93;;
55684;SDS011;41883;49.544;8.646;2022-11-13T04:59:23;14.18;;;9.68;;
55684;SDS011;41883;49.544;8.646;2022-11-13T05:01:48;12.70;;;9.00;;
55684;SDS011;41883;49.544;8.646;2022-11-13T05:04:14;10.30;;;7.78;;
55684;SDS011;41883;49.544;8.646;2022-11-13T05:06:40;11.95;;;7.57;;
55684;SDS011;41883;49.544;8.646;2022-11-13T05:09:05;10.77;;;7.07;;
55684;SDS011;41883;49.544;8.646;2022-11-13T05:11:31;7.95;;;6.20;;
55684;SDS011;41883;49.544;8.646;2022-11-13T05:13:56;8.07;;;6.10;;
55684;SDS011;41883;49.544;8.646;2022-11-13T05:16:22;7.38;;;5.32;;
55684;SDS011;41883;49.544;8.646;2022-11-13T05:18:47;8.07;;;5.95;;
55684;SDS011;41883;49.544;8.646;2022-11-13T05:21:12;8.43;;;5.85;;
55684;SDS011;41883;49.544;8.646;2022-11-13T05:23:38;8.98;;;6.38;;
55684;SDS011;41883;49.544;8.646;2022-11-13T05:26:04;7.50;;;5.50;;
55684;SDS011;41883;49.544;8.646;2022-11-13T05:28:31;7.05;;;5.57;;
55684;SDS011;41883;49.544;8.646;2022-11-13T05:31:08;7.10;;;5.38;;
55684;SDS011;41883;49.544;8.646;2022-11-13T05:33:35;7.88;;;5.90;;
55684;SDS011;41883;49.544;8.646;2022-11-13T05:36:06;10.88;;;7.63;;
55684;SDS011;41883;49.544;8.646;2022-11-13T05:41:03;9.40;;;6.70;;
55684;SDS011;41883;49.544;8.646;2022-11-13T05:45:58;8.75;;;6.50;;
55684;SDS011;41883;49.544;8.646;2022-11-13T05:48:44;8.88;;;6.90;;
55684;SDS011;41883;49.544;8.646;2022-11-13T05:51:12;10.43;;;6.30;;
55684;SDS011;41883;49.544;8.646;2022-11-13T05:53:39;9.48;;;6.68;;
55684;SDS011;41883;49.544;8.646;2022-11-13T05:56:06;10.07;;;6.75;;
55684;SDS011;41883;49.544;8.646;2022-11-13T06:01:10;12.73;;;8.10;;
55684;SDS011;41883;49.544;8.646;2022-11-13T06:03:37;43.25;;;10.77;;
55684;SDS011;41883;49.544;8.646;2022-11-13T06:06:04;22.02;;;9.63;;
55684;SDS011;41883;49.544;8.646;2022-11-13T06:08:31;13.30;;;9.13;;
55684;SDS011;41883;49.544;8.646;2022-11-13T06:10:59;12.45;;;7.97;;
55684;SDS011;41883;49.544;8.646;2022-11-13T06:13:45;21.38;;;8.20;;
55684;SDS011;41883;49.544;8.646;2022-11-13T06:16:12;11.38;;;7.95;;
55684;SDS011;41883;49.544;8.646;2022-11-13T06:18:49;17.13;;;9.43;;
55684;SDS011;41883;49.544;8.646;2022-11-13T06:23:42;20.30;;;8.55;;
55684;SDS011;41883;49.544;8.646;2022-11-13T06:26:08;14.43;;;6.57;;
55684;SDS011;41883;49.544;8.646;2022-11-13T06:28:36;6.45;;;5.28;;
55684;SDS011;41883;49.544;8.646;2022-11-13T06:31:02;32.67;;;8.80;;
55684;SDS011;41883;49.544;8.646;2022-11-13T06:33:33;12.27;;;7.10;;
55684;SDS011;41883;49.544;8.646;2022-11-13T06:36:06;12.93;;;8.00;;
55684;SDS011;41883;49.544;8.646;2022-11-13T06:38:35;10.07;;;6.43;;
55684;SDS011;41883;49.544;8.646;2022-11-13T06:43:27;24.20;;;7.57;;
55684;SDS011;41883;49.544;8.646;2022-11-13T06:45:53;25.20;;;8.27;;
55684;SDS011;41883;49.544;8.646;2022-11-13T06:48:19;10.68;;;7.25;;
55684;SDS011;41883;49.544;8.646;2022-11-13T06:50:45;13.90;;;7.97;;
55684;SDS011;41883;49.544;8.646;2022-11-13T06:53:10;11.55;;;6.95;;
55684;SDS011;41883;49.544;8.646;2022-11-13T06:55:40;8.43;;;6.70;;
55684;SDS011;41883;49.544;8.646;2022-11-13T06:58:14;9.07;;;7.22;;
55684;SDS011;41883;49.544;8.646;2022-11-13T07:00:40;7.43;;;5.72;;
55684;SDS011;41883;49.544;8.646;2022-11-13T07:03:13;13.73;;;8.18;;
55684;SDS011;41883;49.544;8.646;2022-11-13T07:05:40;10.68;;;6.45;;
55684;SDS011;41883;49.544;8.646;2022-11-13T07:08:06;6.80;;;5.38;;
55684;SDS011;41883;49.544;8.646;2022-11-13T07:10:31;8.95;;;5.53;;
55684;SDS011;41883;49.544;8.646;2022-11-13T07:13:00;9.00;;;6.95;;
55684;SDS011;41883;49.544;8.646;2022-11-13T07:15:25;10.48;;;7.55;;
55684;SDS011;41883;49.544;8.646;2022-11-13T07:17:51;9.38;;;6.07;;
55684;SDS011;41883;49.544;8.646;2022-11-13T07:22:42;10.35;;;6.18;;
55684;SDS011;41883;49.544;8.646;2022-11-13T07:25:07;9.60;;;6.28;;
55684;SDS011;41883;49.544;8.646;2022-11-13T07:27:33;10.13;;;7.70;;
55684;SDS011;41883;49.544;8.646;2022-11-13T07:29:58;15.07;;;7.97;;
55684;SDS011;41883;49.544;8.646;2022-11-13T07:32:23;9.95;;;7.50;;
55684;SDS011;41883;49.544;8.646;2022-11-13T07:34:49;11.93;;;8.23;;
55684;SDS011;41883;49.544;8.646;2022-11-13T07:37:14;10.45;;;7.22;;
55684;SDS011;41883;49.544;8.646;2022-11-13T07:39:39;10.13;;;6.93;;
55684;SDS011;41883;49.544;8.646;2022-11-13T07:42:04;11.48;;;6.63;;
55684;SDS011;41883;49.544;8.646;2022-11-13T07:44:30;8.55;;;6.43;;
55684;SDS011;41883;49.544;8.646;2022-11-13T07:46:55;7.68;;;5.93;;
55684;SDS011;41883;49.544;8.646;2022-11-13T07:49:20;7.97;;;6.20;;
55684;SDS011;41883;49.544;8.646;2022-11-13T07:51:45;10.05;;;6.35;;
55684;SDS011;41883;49.544;8.646;2022-11-13T07:54:11;10.98;;;8.23;;
55684;SDS011;41883;49.544;8.646;2022-11-13T07:56:36;12.70;;;8.40;;
55684;SDS011;41883;49.544;8.646;2022-11-13T07:59:01;10.82;;;8.00;;
55684;SDS011;41883;49.544;8.646;2022-11-13T08:01:26;10.43;;;7.38;;
55684;SDS011;41883;49.544;8.646;2022-11-13T08:03:52;10.00;;;7.20;;
55684;SDS011;41883;49.544;8.646;2022-11-13T08:06:17;12.18;;;8.23;;
55684;SDS011;41883;49.544;8.646;2022-11-13T08:08:42;16.88;;;10.68;;
55684;SDS011;41883;49.544;8.646;2022-11-13T08:11:11;12.88;;;8.88;;
55684;SDS011;41883;49.544;8.646;2022-11-13T08:13:37;10.10;;;7.15;;
55684;SDS011;41883;49.544;8.646;2022-11-13T08:16:02;8.23;;;6.53;;
55684;SDS011;41883;49.544;8.646;2022-11-13T08:18:29;8.55;;;6.50;;
55684;SDS011;41883;49.544;8.646;2022-11-13T08:20:55;7.35;;;6.00;;
55684;SDS011;41883;49.544;8.646;2022-11-13T08:23:20;11.27;;;7.30;;
55684;SDS011;41883;49.544;8.646;2022-11-13T08:25:46;11.20;;;7.60;;
55684;SDS011;41883;49.544;8.646;2022-11-13T08:28:12;8.13;;;6.78;;
55684;SDS011;41883;49.544;8.646;2022-11-13T08:30:37;9.50;;;7.28;;
55684;SDS011;41883;49.544;8.646;2022-11-13T08:33:03;10.25;;;7.20;;
55684;SDS011;41883;49.544;8.646;2022-11-13T08:35:29;10.55;;;7.00;;
55684;SDS011;41883;49.544;8.646;2022-11-13T08:37:54;7.57;;;6.05;;
55684;SDS011;41883;49.544;8.646;2022-11-13T08:40:25;11.77;;;7.70;;
55684;SDS011;41883;49.544;8.646;2022-11-13T08:42:50;8.75;;;6.72;;
55684;SDS011;41883;49.544;8.646;2022-11-13T08:45:16;24.98;;;7.47;;
55684;SDS011;41883;49.544;8.646;2022-11-13T08:47:41;8.20;;;6.53;;
55684;SDS011;41883;49.544;8.646;2022-11-13T08:50:06;11.82;;;6.85;;
55684;SDS011;41883;49.544;8.646;2022-11-13T08:52:32;11.32;;;8.23;;
55684;SDS011;41883;49.544;8.646;2022-11-13T08:54:57;13.15;;;8.38;;
55684;SDS011;41883;49.544;8.646;2022-11-13T08:57:22;15.38;;;8.55;;
55684;SDS011;41883;49.544;8.646;2022-11-13T08:59:48;11.45;;;7.68;;
55684;SDS011;41883;49.544;8.646;2022-11-13T09:02:13;8.20;;;6.70;;
55684;SDS011;41883;49.544;8.646;2022-11-13T09:04:41;8.82;;;7.00;;
55684;SDS011;41883;49.544;8.646;2022-11-13T09:07:06;9.68;;;6.10;;
55684;SDS011;41883;49.544;8.646;2022-11-13T09:09:32;9.27;;;5.60;;
55684;SDS011;41883;49.544;8.646;2022-11-13T09:11:58;10.80;;;6.43;;
55684;SDS011;41883;49.544;8.646;2022-11-13T09:14:23;11.88;;;6.28;;
55684;SDS011;41883;49.544;8.646;2022-11-13T09:16:49;14.07;;;6.78;;
55684;SDS011;41883;49.544;8.646;2022-11-13T09:19:14;9.23;;;6.53;;
55684;SDS011;41883;49.544;8.646;2022-11-13T09:21:39;14.23;;;6.82;;
55684;SDS011;41883;49.544;8.646;2022-11-13T09:24:05;7.78;;;6.18;;
55684;SDS011;41883;49.544;8.646;2022-11-13T09:26:30;6.65;;;5.60;;
55684;SDS011;41883;49.544;8.646;2022-11-13T09:28:56;16.52;;;8.27;;
55684;SDS011;41883;49.544;8.646;2022-11-13T09:31:21;9.77;;;7.63;;
55684;SDS011;41883;49.544;8.646;2022-11-13T09:33:46;12.77;;;8.77;;
55684;SDS011;41883;49.544;8.646;2022-11-13T09:36:12;10.85;;;7.63;;
55684;SDS011;41883;49.544;8.646;2022-11-13T09:38:39;20.83;;;7.90;;
55684;SDS011;41883;49.544;8.646;2022-11-13T09:46:26;12.25;;;9.00;;
55684;SDS011;41883;49.544;8.646;2022-11-13T09:48:58;10.05;;;7.85;;
55684;SDS011;41883;49.544;8.646;2022-11-13T09:51:29;11.38;;;6.90;;
55684;SDS011;41883;49.544;8.646;2022-11-13T09:53:57;8.52;;;6.70;;
55684;SDS011;41883;49.544;8.646;2022-11-13T09:56:39;7.38;;;6.10;;
55684;SDS011;41883;49.544;8.646;2022-11-13T10:01:48;8.98;;;6.97;;
55684;SDS011;41883;49.544;8.646;2022-11-13T10:07:04;8.80;;;6.95;;
55684;SDS011;41883;49.544;8.646;2022-11-13T10:12:42;14.73;;;7.35;;
55684;SDS011;41883;49.544;8.646;2022-11-13T10:15:10;8.27;;;6.78;;
55684;SDS011;41883;49.544;8.646;2022-11-13T10:17:39;8.13;;;6.80;;
55684;SDS011;41883;49.544;8.646;2022-11-13T10:20:29;10.98;;;7.05;;
55684;SDS011;41883;49.544;8.646;2022-11-13T10:25:32;9.73;;;6.38;;
55684;SDS011;41883;49.544;8.646;2022-11-13T10:28:00;8.23;;;6.50;;
55684;SDS011;41883;49.544;8.646;2022-11-13T10:30:33;5.63;;;5.05;;
55684;SDS011;41883;49.544;8.646;2022-11-13T10:33:08;11.07;;;6.80;;
55684;SDS011;41883;49.544;8.646;2022-11-13T10:38:08;7.43;;;6.07;;
55684;SDS011;41883;49.544;8.646;2022-11-13T10:40:42;10.35;;;6.35;;
55684;SDS011;41883;49.544;8.646;2022-11-13T10:43:18;6.93;;;5.30;;
55684;SDS011;41883;49.544;8.646;2022-11-13T10:46:20;8.00;;;5.50;;
55684;SDS011;41883;49.544;8.646;2022-11-13T10:48:42;7.88;;;6.55;;
55684;SDS011;41883;49.544;8.646;2022-11-13T10:51:19;7.78;;;6.15;;
55684;SDS011;41883;49.544;8.646;2022-11-13T10:59:01;8.48;;;6.32;;
55684;SDS011;41883;49.544;8.646;2022-11-13T11:01:29;6.55;;;5.32;;
55684;SDS011;41883;49.544;8.646;2022-11-13T11:03:54;7.60;;;6.20;;
55684;SDS011;41883;49.544;8.646;2022-11-13T11:06:29;14.05;;;7.28;;
55684;SDS011;41883;49.544;8.646;2022-11-13T11:11:37;24.15;;;7.38;;
55684;SDS011;41883;49.544;8.646;2022-11-13T11:14:36;9.25;;;6.97;;
55684;SDS011;41883;49.544;8.646;2022-11-13T11:17:06;6.75;;;5.80;;
55684;SDS011;41883;49.544;8.646;2022-11-13T11:19:36;11.77;;;6.32;;
55684;SDS011;41883;49.544;8.646;2022-11-13T11:22:14;10.23;;;6.25;;
55684;SDS011;41883;49.544;8.646;2022-11-13T11:24:55;6.97;;;5.65;;
55684;SDS011;41883;49.544;8.646;2022-11-13T11:27:32;7.50;;;6.15;;
55684;SDS011;41883;49.544;8.646;2022-11-13T11:32:35;6.35;;;5.53;;
55684;SDS011;41883;49.544;8.646;2022-11-13T11:35:51;8.65;;;7.03;;
55684;SDS011;41883;49.544;8.646;2022-11-13T11:38:10;7.85;;;6.70;;
55684;SDS011;41883;49.544;8.646;2022-11-13T11:40:39;9.77;;;7.70;;
55684;SDS011;41883;49.544;8.646;2022-11-13T11:46:02;8.05;;;6.97;;
55684;SDS011;41883;49.544;8.646;2022-11-13T11:48:31;10.65;;;7.63;;
55684;SDS011;41883;49.544;8.646;2022-11-13T11:52:01;8.98;;;7.70;;
55684;SDS011;41883;49.544;8.646;2022-11-13T11:56:50;9.57;;;7.70;;
55684;SDS011;41883;49.544;8.646;2022-11-13T12:07:52;9.98;;;8.50;;
55684;SDS011;41883;49.544;8.646;2022-11-13T12:10:37;9.93;;;7.85;;
55684;SDS011;41883;49.544;8.646;2022-11-13T12:13:30;10.38;;;8.40;;
55684;SDS011;41883;49.544;8.646;2022-11-13T12:16:01;9.73;;;7.80;;
55684;SDS011;41883;49.544;8.646;2022-11-13T12:18:39;9.32;;;7.53;;
55684;SDS011;41883;49.544;8.646;2022-11-13T12:24:34;7.93;;;6.20;;
55684;SDS011;41883;49.544;8.646;2022-11-13T12:30:01;9.75;;;7.85;;
55684;SDS011;41883;49.544;8.646;2022-11-13T12:35:37;10.00;;;8.05;;
55684;SDS011;41883;49.544;8.646;2022-11-13T12:40:54;11.88;;;10.02;;
55684;SDS011;41883;49.544;8.646;2022-11-13T12:46:18;21.50;;;15.45;;
55684;SDS011;41883;49.544;8.646;2022-11-13T12:48:45;18.15;;;13.55;;
55684;SDS011;41883;49.544;8.646;2022-11-13T12:51:15;18.55;;;13.57;;
55684;SDS011;41883;49.544;8.646;2022-11-13T12:53:52;14.07;;;11.50;;
55684;SDS011;41883;49.544;8.646;2022-11-13T12:58:56;13.35;;;11.15;;
55684;SDS011;41883;49.544;8.646;2022-11-13T13:01:24;11.32;;;9.80;;
55684;SDS011;41883;49.544;8.646;2022-11-13T13:07:01;10.05;;;8.90;;
55684;SDS011;41883;49.544;8.646;2022-11-13T13:09:43;10.23;;;8.73;;
55684;SDS011;41883;49.544;8.646;2022-11-13T13:12:36;10.60;;;8.27;;
55684;SDS011;41883;49.544;8.646;2022-11-13T13:18:40;10.38;;;8.65;;
55684;SDS011;41883;49.544;8.646;2022-11-13T13:23:35;14.35;;;11.65;;
55684;SDS011;41883;49.544;8.646;2022-11-13T13:28:31;10.38;;;8.48;;
55684;SDS011;41883;49.544;8.646;2022-11-13T13:36:41;14.90;;;11.88;;
55684;SDS011;41883;49.544;8.646;2022-11-13T13:45:01;11.30;;;9.60;;
55684;SDS011;41883;49.544;8.646;2022-11-13T13:47:38;10.10;;;8.32;;
55684;SDS011;41883;49.544;8.646;2022-11-13T13:50:10;9.35;;;8.30;;
55684;SDS011;41883;49.544;8.646;2022-11-13T13:52:39;10.52;;;7.80;;
55684;SDS011;41883;49.544;8.646;2022-11-13T13:55:15;9.45;;;7.82;;
55684;SDS011;41883;49.544;8.646;2022-11-13T13:57:45;10.43;;;9.02;;
55684;SDS011;41883;49.544;8.646;2022-11-13T14:00:11;10.93;;;9.25;;
55684;SDS011;41883;49.544;8.646;2022-11-13T14:02:45;12.38;;;10.38;;
55684;SDS011;41883;49.544;8.646;2022-11-13T14:07:52;11.05;;;9.68;;
55684;SDS011;41883;49.544;8.646;2022-11-13T14:10:19;9.80;;;8.38;;
55684;SDS011;41883;49.544;8.646;2022-11-13T14:12:49;10.60;;;8.15;;
55684;SDS011;41883;49.544;8.646;2022-11-13T14:17:46;14.07;;;11.18;;
55684;SDS011;41883;49.544;8.646;2022-11-13T14:20:11;9.30;;;8.20;;
55684;SDS011;41883;49.544;8.646;2022-11-13T14:22:37;9.23;;;8.20;;
55684;SDS011;41883;49.544;8.646;2022-11-13T14:25:04;11.13;;;9.80;;
55684;SDS011;41883;49.544;8.646;2022-11-13T14:27:30;9.88;;;8.27;;
55684;SDS011;41883;49.544;8.646;2022-11-13T14:29:57;10.82;;;9.02;;
55684;SDS011;41883;49.544;8.646;2022-11-13T14:32:25;10.80;;;8.70;;
55684;SDS011;41883;49.544;8.646;2022-11-13T14:34:57;11.95;;;8.93;;
55684;SDS011;41883;49.544;8.646;2022-11-13T14:39:59;8.80;;;7.22;;
55684;SDS011;41883;49.544;8.646;2022-11-13T14:42:32;7.47;;;6.18;;
55684;SDS011;41883;49.544;8.646;2022-11-13T14:47:40;11.02;;;8.70;;
55684;SDS011;41883;49.544;8.646;2022-11-13T14:52:54;7.47;;;6.22;;
55684;SDS011;41883;49.544;8.646;2022-11-13T14:55:25;9.02;;;7.45;;
55684;SDS011;41883;49.544;8.646;2022-11-13T14:58:00;9.00;;;7.40;;
55684;SDS011;41883;49.544;8.646;2022-11-13T15:00:28;8.18;;;6.28;;
55684;SDS011;41883;49.544;8.646;2022-11-13T15:03:02;8.68;;;6.90;;
55684;SDS011;41883;49.544;8.646;2022-11-13T15:05:28;7.07;;;5.65;;
55684;SDS011;41883;49.544;8.646;2022-11-13T15:07:54;9.85;;;7.22;;
55684;SDS011;41883;49.544;8.646;2022-11-13T15:10:21;9.38;;;6.93;;
55684;SDS011;41883;49.544;8.646;2022-11-13T15:12:48;10.32;;;8.13;;
55684;SDS011;41883;49.544;8.646;2022-11-13T15:15:21;10.35;;;7.43;;
55684;SDS011;41883;49.544;8.646;2022-11-13T15:17:50;10.10;;;7.32;;
55684;SDS011;41883;49.544;8.646;2022-11-13T15:20:26;8.48;;;6.57;;
55684;SDS011;41883;49.544;8.646;2022-11-13T15:22:53;8.57;;;6.70;;
55684;SDS011;41883;49.544;8.646;2022-11-13T15:25:20;8.40;;;6.60;;
55684;SDS011;41883;49.544;8.646;2022-11-13T15:27:46;8.45;;;6.43;;
55684;SDS011;41883;49.544;8.646;2022-11-13T15:30:12;8.48;;;6.90;;
55684;SDS011;41883;49.544;8.646;2022-11-13T15:32:37;9.60;;;7.60;;
55684;SDS011;41883;49.544;8.646;2022-11-13T15:35:03;9.80;;;7.97;;
55684;SDS011;41883;49.544;8.646;2022-11-13T15:37:28;12.13;;;8.95;;
55684;SDS011;41883;49.544;8.646;2022-11-13T15:39:53;14.90;;;11.33;;
55684;SDS011;41883;49.544;8.646;2022-11-13T15:42:19;15.93;;;12.13;;
55684;SDS011;41883;49.544;8.646;2022-11-13T15:44:48;15.07;;;11.57;;
55684;SDS011;41883;49.544;8.646;2022-11-13T15:47:27;14.77;;;11.40;;
55684;SDS011;41883;49.544;8.646;2022-11-13T15:49:54;12.47;;;9.83;;
55684;SDS011;41883;49.544;8.646;2022-11-13T15:52:20;10.40;;;8.40;;
55684;SDS011;41883;49.544;8.646;2022-11-13T15:54:47;11.07;;;8.43;;
55684;SDS011;41883;49.544;8.646;2022-11-13T15:57:15;33.75;;;22.30;;
55684;SDS011;41883;49.544;8.646;2022-11-13T15:59:44;38.35;;;27.23;;
55684;SDS011;41883;49.544;8.646;2022-11-13T16:02:09;28.98;;;20.23;;
55684;SDS011;41883;49.544;8.646;2022-11-13T16:04:35;27.08;;;18.73;;
55684;SDS011;41883;49.544;8.646;2022-11-13T16:07:02;23.83;;;17.30;;
55684;SDS011;41883;49.544;8.646;2022-11-13T16:09:28;19.40;;;13.93;;
55684;SDS011;41883;49.544;8.646;2022-11-13T16:11:53;18.48;;;13.10;;
55684;SDS011;41883;49.544;8.646;2022-11-13T16:14:20;17.60;;;12.32;;
55684;SDS011;41883;49.544;8.646;2022-11-13T16:16:45;19.63;;;12.68;;
55684;SDS011;41883;49.544;8.646;2022-11-13T16:19:12;17.38;;;12.00;;
55684;SDS011;41883;49.544;8.646;2022-11-13T16:21:46;16.08;;;11.43;;
55684;SDS011;41883;49.544;8.646;2022-11-13T16:24:11;14.82;;;9.88;;
55684;SDS011;41883;49.544;8.646;2022-11-13T16:26:37;13.68;;;9.07;;
55684;SDS011;41883;49.544;8.646;2022-11-13T16:29:08;12.88;;;10.07;;
55684;SDS011;41883;49.544;8.646;2022-11-13T16:31:46;17.83;;;12.70;;
55684;SDS011;41883;49.544;8.646;2022-11-13T16:34:12;13.98;;;10.52;;
55684;SDS011;41883;49.544;8.646;2022-11-13T16:36:37;13.13;;;9.98;;
55684;SDS011;41883;49.544;8.646;2022-11-13T16:39:03;12.45;;;9.63;;
55684;SDS011;41883;49.544;8.646;2022-11-13T16:41:29;12.63;;;9.95;;
55684;SDS011;41883;49.544;8.646;2022-11-13T16:43:55;14.55;;;10.32;;
55684;SDS011;41883;49.544;8.646;2022-11-13T16:46:28;14.05;;;9.65;;